8.9°F
Current conditions from King Hill
Updated every 5 minutes
 
  Friday December 19, 2014

Station Historical Data
Daily Summary for August 07, 2012 Units:  Both    English   Metric
« Previous Day
Next Day »
Daily Weekly Monthly Yearly Custom
  High: Low: Average:
Temperature: 83.0 °F /  28.3 °C 52.1 °F /  11.2 °C 67.2 °F /  19.6 °C
Dew Point: 61.5 °F /  16.4 °C 50.7 °F /  10.4 °C 56 °F /  13.3 °C
Humidity: 96% 42% 71%
Wind Speed: 7.0mph /  11.3km/h - 1.8mph /  2.9km/h
Wind Gust: 13.0mph /  20.9km/h - -
Wind- - SW
Pressure: 29.96 in /  1014.4 hPa 29.86 in /  1011.1 hPa -
Precipitation: 0.01 in /  0.3 mm    
Historical Graphs
 
 
Tabular Data for August 07, 2012
Time Temperature Dew Point Pressure Wind Wind Speed Wind Gust Humidity Daily Rainfall
00:04 53.7 °F /  12.1 °C 51.4 °F /  10.8 °C 29.95in /  1014.1hPa Calm     92% 0.00in /  0mm
00:10 53.6 °F /  12 °C 51.3 °F /  10.7 °C 29.95in /  1014.1hPa Calm     92% 0.00in /  0mm
00:14 53.6 °F /  12 °C 51.3 °F /  10.7 °C 29.95in /  1014.1hPa Calm     92% 0.00in /  0mm
00:20 53.5 °F /  11.9 °C 51.2 °F /  10.7 °C 29.95in /  1014.1hPa Calm     92% 0.00in /  0mm
00:29 53.4 °F /  11.9 °C 51.1 °F /  10.6 °C 29.95in /  1014.1hPa Calm     92% 0.00in /  0mm
00:34 53.3 °F /  11.8 °C 51.0 °F /  10.6 °C 29.95in /  1014.1hPa Calm     92% 0.00in /  0mm
00:39 53.3 °F /  11.8 °C 51.3 °F /  10.7 °C 29.95in /  1014.1hPa Calm     93% 0.00in /  0mm
00:44 53.2 °F /  11.8 °C 51.2 °F /  10.7 °C 29.95in /  1014.1hPa Calm     93% 0.00in /  0mm
00:49 53.3 °F /  11.8 °C 51.3 °F /  10.7 °C 29.95in /  1014.1hPa Calm     93% 0.00in /  0mm
00:54 53.5 °F /  11.9 °C 51.5 °F /  10.8 °C 29.95in /  1014.1hPa Calm     93% 0.00in /  0mm
00:59 53.5 °F /  11.9 °C 51.5 °F /  10.8 °C 29.95in /  1014.1hPa Calm     93% 0.00in /  0mm
01:04 53.4 °F /  11.9 °C 51.7 °F /  10.9 °C 29.96in /  1014.4hPa Calm     94% 0.00in /  0mm
01:09 53.4 °F /  11.9 °C 51.7 °F /  10.9 °C 29.96in /  1014.4hPa Calm     94% 0.00in /  0mm
01:14 53.5 °F /  11.9 °C 51.8 °F /  11 °C 29.96in /  1014.4hPa Calm     94% 0.00in /  0mm
01:19 53.5 °F /  11.9 °C 51.8 °F /  11 °C 29.96in /  1014.4hPa Calm     94% 0.00in /  0mm
01:24 53.5 °F /  11.9 °C 51.8 °F /  11 °C 29.96in /  1014.4hPa Calm     94% 0.00in /  0mm
01:29 53.4 °F /  11.9 °C 51.7 °F /  10.9 °C 29.96in /  1014.4hPa Calm     94% 0.00in /  0mm
01:34 53.4 °F /  11.9 °C 51.7 °F /  10.9 °C 29.95in /  1014.1hPa Calm     94% 0.00in /  0mm
01:39 53.3 °F /  11.8 °C 51.6 °F /  10.9 °C 29.95in /  1014.1hPa Calm     94% 0.00in /  0mm
01:44 53.3 °F /  11.8 °C 51.6 °F /  10.9 °C 29.95in /  1014.1hPa Calm     94% 0.00in /  0mm
01:49 53.2 °F /  11.8 °C 51.5 °F /  10.8 °C 29.95in /  1014.1hPa Calm     94% 0.00in /  0mm
01:54 53.2 °F /  11.8 °C 51.5 °F /  10.8 °C 29.95in /  1014.1hPa Calm     94% 0.00in /  0mm
01:59 53.0 °F /  11.7 °C 51.3 °F /  10.7 °C 29.95in /  1014.1hPa Calm     94% 0.00in /  0mm
02:04 52.9 °F /  11.6 °C 51.2 °F /  10.7 °C 29.95in /  1014.1hPa Calm     94% 0.00in /  0mm
02:09 52.8 °F /  11.6 °C 51.1 °F /  10.6 °C 29.95in /  1014.1hPa Calm     94% 0.00in /  0mm
02:14 52.9 °F /  11.6 °C 51.2 °F /  10.7 °C 29.95in /  1014.1hPa Calm     94% 0.00in /  0mm
02:19 52.8 °F /  11.6 °C 51.1 °F /  10.6 °C 29.95in /  1014.1hPa Calm     94% 0.00in /  0mm
02:24 52.8 °F /  11.6 °C 51.1 °F /  10.6 °C 29.95in /  1014.1hPa Calm     94% 0.00in /  0mm
02:29 52.7 °F /  11.5 °C 51.0 °F /  10.6 °C 29.95in /  1014.1hPa Calm     94% 0.00in /  0mm
02:34 52.7 °F /  11.5 °C 51.0 °F /  10.6 °C 29.95in /  1014.1hPa Calm     94% 0.00in /  0mm
02:39 52.8 °F /  11.6 °C 51.1 °F /  10.6 °C 29.94in /  1013.8hPa Calm     94% 0.00in /  0mm
02:44 52.7 °F /  11.5 °C 51.0 °F /  10.6 °C 29.95in /  1014.1hPa Calm     94% 0.00in /  0mm
02:49 52.7 °F /  11.5 °C 51.3 °F /  10.7 °C 29.95in /  1014.1hPa Calm     95% 0.00in /  0mm
02:54 52.7 °F /  11.5 °C 51.3 °F /  10.7 °C 29.95in /  1014.1hPa Calm     95% 0.00in /  0mm
02:59 52.6 °F /  11.4 °C 51.2 °F /  10.7 °C 29.95in /  1014.1hPa Calm     95% 0.00in /  0mm
03:04 52.7 °F /  11.5 °C 51.3 °F /  10.7 °C 29.95in /  1014.1hPa Calm     95% 0.00in /  0mm
03:09 52.6 °F /  11.4 °C 51.2 °F /  10.7 °C 29.95in /  1014.1hPa Calm     95% 0.00in /  0mm
03:14 52.7 °F /  11.5 °C 51.3 °F /  10.7 °C 29.95in /  1014.1hPa Calm     95% 0.00in /  0mm
03:19 52.7 °F /  11.5 °C 51.3 °F /  10.7 °C 29.94in /  1013.8hPa Calm     95% 0.00in /  0mm
03:24 52.8 °F /  11.6 °C 51.4 °F /  10.8 °C 29.94in /  1013.8hPa Calm     95% 0.00in /  0mm
03:29 52.6 °F /  11.4 °C 51.2 °F /  10.7 °C 29.94in /  1013.8hPa Calm     95% 0.00in /  0mm
03:34 52.4 °F /  11.3 °C 51.0 °F /  10.6 °C 29.94in /  1013.8hPa Calm     95% 0.00in /  0mm
03:39 52.6 °F /  11.4 °C 51.2 °F /  10.7 °C 29.94in /  1013.8hPa Calm     95% 0.00in /  0mm
03:44 52.7 °F /  11.5 °C 51.3 °F /  10.7 °C 29.94in /  1013.8hPa Calm     95% 0.00in /  0mm
03:49 52.7 °F /  11.5 °C 51.3 °F /  10.7 °C 29.94in /  1013.8hPa Calm     95% 0.00in /  0mm
03:54 52.5 °F /  11.4 °C 51.1 °F /  10.6 °C 29.94in /  1013.8hPa Calm     95% 0.00in /  0mm
03:59 52.6 °F /  11.4 °C 51.2 °F /  10.7 °C 29.94in /  1013.8hPa Calm     95% 0.00in /  0mm
04:04 52.8 °F /  11.6 °C 51.4 °F /  10.8 °C 29.94in /  1013.8hPa Calm     95% 0.00in /  0mm
04:09 52.7 °F /  11.5 °C 51.3 °F /  10.7 °C 29.94in /  1013.8hPa Calm     95% 0.00in /  0mm
04:14 52.6 °F /  11.4 °C 51.2 °F /  10.7 °C 29.94in /  1013.8hPa Calm     95% 0.00in /  0mm
04:19 52.7 °F /  11.5 °C 51.3 °F /  10.7 °C 29.94in /  1013.8hPa Calm     95% 0.00in /  0mm
04:24 52.6 °F /  11.4 °C 51.2 °F /  10.7 °C 29.93in /  1013.4hPa Calm     95% 0.00in /  0mm
04:29 52.4 °F /  11.3 °C 51.0 °F /  10.6 °C 29.94in /  1013.8hPa Calm     95% 0.00in /  0mm
04:34 52.3 °F /  11.3 °C 50.9 °F /  10.5 °C 29.93in /  1013.4hPa Calm     95% 0.00in /  0mm
04:39 52.2 °F /  11.2 °C 50.8 °F /  10.4 °C 29.94in /  1013.8hPa Calm     95% 0.00in /  0mm
04:44 52.1 °F /  11.2 °C 50.7 °F /  10.4 °C 29.94in /  1013.8hPa Calm     95% 0.00in /  0mm
04:49 52.2 °F /  11.2 °C 50.8 °F /  10.4 °C 29.94in /  1013.8hPa Calm     95% 0.00in /  0mm
04:54 52.7 °F /  11.5 °C 51.3 °F /  10.7 °C 29.94in /  1013.8hPa Calm   2.0mph /  3.2km/h 95% 0.00in /  0mm
04:59 53.0 °F /  11.7 °C 51.9 °F /  11.1 °C 29.94in /  1013.8hPa Calm   2.0mph /  3.2km/h 96% 0.00in /  0mm
05:04 53.3 °F /  11.8 °C 51.9 °F /  11.1 °C 29.94in /  1013.8hPa Calm   2.0mph /  3.2km/h 95% 0.00in /  0mm
05:09 53.5 °F /  11.9 °C 52.4 °F /  11.3 °C 29.94in /  1013.8hPa Calm   2.0mph /  3.2km/h 96% 0.00in /  0mm
05:14 53.7 °F /  12.1 °C 52.6 °F /  11.4 °C 29.94in /  1013.8hPa Calm   2.0mph /  3.2km/h 96% 0.00in /  0mm
05:19 53.9 °F /  12.2 °C 52.8 °F /  11.6 °C 29.94in /  1013.8hPa Calm   3.0mph /  4.8km/h 96% 0.00in /  0mm
05:24 54.1 °F /  12.3 °C 53.0 °F /  11.7 °C 29.94in /  1013.8hPa Calm   3.0mph /  4.8km/h 96% 0.00in /  0mm
05:29 54.3 °F /  12.4 °C 53.2 °F /  11.8 °C 29.94in /  1013.8hPa Calm   3.0mph /  4.8km/h 96% 0.00in /  0mm
05:34 54.3 °F /  12.4 °C 53.2 °F /  11.8 °C 29.94in /  1013.8hPa Calm   3.0mph /  4.8km/h 96% 0.00in /  0mm
05:39 54.5 °F /  12.5 °C 53.4 °F /  11.9 °C 29.94in /  1013.8hPa SSW 1.0mph /  1.6km/h 5.0mph /  8km/h 96% 0.00in /  0mm
05:44 54.5 °F /  12.5 °C 53.4 °F /  11.9 °C 29.94in /  1013.8hPa Calm   5.0mph /  8km/h 96% 0.00in /  0mm
05:49 54.4 °F /  12.4 °C 53.0 °F /  11.7 °C 29.94in /  1013.8hPa Calm   2.0mph /  3.2km/h 95% 0.00in /  0mm
05:54 54.4 °F /  12.4 °C 53.0 °F /  11.7 °C 29.94in /  1013.8hPa Calm   2.0mph /  3.2km/h 95% 0.01in /  0.3mm
05:59 54.3 °F /  12.4 °C 52.9 °F /  11.6 °C 29.94in /  1013.8hPa Calm   4.0mph /  6.4km/h 95% 0.01in /  0.3mm
06:04 54.3 °F /  12.4 °C 52.9 °F /  11.6 °C 29.94in /  1013.8hPa Calm   4.0mph /  6.4km/h 95% 0.01in /  0.3mm
06:09 54.5 °F /  12.5 °C 53.1 °F /  11.7 °C 29.94in /  1013.8hPa SSW 1.0mph /  1.6km/h 4.0mph /  6.4km/h 95% 0.01in /  0.3mm
06:14 54.5 °F /  12.5 °C 53.1 °F /  11.7 °C 29.94in /  1013.8hPa Calm   4.0mph /  6.4km/h 95% 0.01in /  0.3mm
06:19 54.6 °F /  12.6 °C 53.5 °F /  11.9 °C 29.95in /  1014.1hPa SSW 1.0mph /  1.6km/h 3.0mph /  4.8km/h 96% 0.01in /  0.3mm
06:24 54.7 °F /  12.6 °C 53.6 °F /  12 °C 29.95in /  1014.1hPa Calm   3.0mph /  4.8km/h 96% 0.01in /  0.3mm
06:29 54.7 °F /  12.6 °C 53.6 °F /  12 °C 29.95in /  1014.1hPa Calm   2.0mph /  3.2km/h 96% 0.01in /  0.3mm
06:34 54.7 °F /  12.6 °C 53.6 °F /  12 °C 29.95in /  1014.1hPa SSW 1.0mph /  1.6km/h 4.0mph /  6.4km/h 96% 0.01in /  0.3mm
06:39 54.9 °F /  12.7 °C 53.5 °F /  11.9 °C 29.95in /  1014.1hPa Calm   4.0mph /  6.4km/h 95% 0.01in /  0.3mm
06:44 54.9 °F /  12.7 °C 53.5 °F /  11.9 °C 29.95in /  1014.1hPa Calm   2.0mph /  3.2km/h 95% 0.01in /  0.3mm
06:49 55.1 °F /  12.8 °C 53.7 °F /  12.1 °C 29.95in /  1014.1hPa Calm     95% 0.01in /  0.3mm
06:54 55.3 °F /  12.9 °C 54.2 °F /  12.3 °C 29.95in /  1014.1hPa SSW 1.0mph /  1.6km/h 5.0mph /  8km/h 96% 0.01in /  0.3mm
06:59 55.5 °F /  13.1 °C 54.4 °F /  12.4 °C 29.95in /  1014.1hPa Calm   5.0mph /  8km/h 96% 0.01in /  0.3mm
07:04 55.8 °F /  13.2 °C 54.4 °F /  12.4 °C 29.95in /  1014.1hPa SW 1.0mph /  1.6km/h 5.0mph /  8km/h 95% 0.01in /  0.3mm
07:09 56.1 °F /  13.4 °C 55.0 °F /  12.8 °C 29.95in /  1014.1hPa SSW 1.0mph /  1.6km/h 5.0mph /  8km/h 96% 0.01in /  0.3mm
07:14 56.6 °F /  13.7 °C 55.5 °F /  13.1 °C 29.95in /  1014.1hPa SSW 2.0mph /  3.2km/h 6.0mph /  9.7km/h 96% 0.01in /  0.3mm
07:19 57.1 °F /  13.9 °C 55.7 °F /  13.2 °C 29.95in /  1014.1hPa SSW 1.0mph /  1.6km/h 7.0mph /  11.3km/h 95% 0.01in /  0.3mm
07:24 57.5 °F /  14.2 °C 56.1 °F /  13.4 °C 29.96in /  1014.4hPa Calm   7.0mph /  11.3km/h 95% 0.01in /  0.3mm
07:29 58.0 °F /  14.4 °C 56.6 °F /  13.7 °C 29.96in /  1014.4hPa SW 1.0mph /  1.6km/h 6.0mph /  9.7km/h 95% 0.01in /  0.3mm
07:34 58.5 °F /  14.7 °C 57.1 °F /  13.9 °C 29.96in /  1014.4hPa SW 2.0mph /  3.2km/h 6.0mph /  9.7km/h 95% 0.01in /  0.3mm
07:39 59.0 °F /  15 °C 57.6 °F /  14.2 °C 29.96in /  1014.4hPa SW 2.0mph /  3.2km/h 6.0mph /  9.7km/h 95% 0.01in /  0.3mm
07:44 59.4 °F /  15.2 °C 57.4 °F /  14.1 °C 29.96in /  1014.4hPa SW 1.0mph /  1.6km/h 7.0mph /  11.3km/h 93% 0.01in /  0.3mm
07:49 60.2 °F /  15.7 °C 58.2 °F /  14.6 °C 29.96in /  1014.4hPa Calm   7.0mph /  11.3km/h 93% 0.01in /  0.3mm
07:54 60.9 °F /  16.1 °C 58.3 °F /  14.6 °C 29.96in /  1014.4hPa SW 1.0mph /  1.6km/h 5.0mph /  8km/h 91% 0.01in /  0.3mm
07:59 61.5 °F /  16.4 °C 58.2 °F /  14.6 °C 29.96in /  1014.4hPa SSW 1.0mph /  1.6km/h 6.0mph /  9.7km/h 89% 0.01in /  0.3mm
08:04 62.1 °F /  16.7 °C 58.2 °F /  14.6 °C 29.96in /  1014.4hPa Calm   9.0mph /  14.5km/h 87% 0.01in /  0.3mm
08:09 62.8 °F /  17.1 °C 58.2 °F /  14.6 °C 29.96in /  1014.4hPa SSW 1.0mph /  1.6km/h 9.0mph /  14.5km/h 85% 0.01in /  0.3mm
08:14 63.5 °F /  17.5 °C 58.2 °F /  14.6 °C 29.96in /  1014.4hPa Calm   7.0mph /  11.3km/h 83% 0.01in /  0.3mm
08:19 64.2 °F /  17.9 °C 58.6 °F /  14.8 °C 29.96in /  1014.4hPa SSW 1.0mph /  1.6km/h 7.0mph /  11.3km/h 82% 0.01in /  0.3mm
08:24 64.8 °F /  18.2 °C 58.5 °F /  14.7 °C 29.96in /  1014.4hPa Calm   7.0mph /  11.3km/h 80% 0.01in /  0.3mm
08:29 65.4 °F /  18.6 °C 59.1 °F /  15.1 °C 29.96in /  1014.4hPa WSW 1.0mph /  1.6km/h 10.0mph /  16.1km/h 80% 0.01in /  0.3mm
08:34 66.1 °F /  18.9 °C 59.4 °F /  15.2 °C 29.96in /  1014.4hPa Calm   10.0mph /  16.1km/h 79% 0.01in /  0.3mm
08:39 66.5 °F /  19.2 °C 58.7 °F /  14.8 °C 29.96in /  1014.4hPa SW 1.0mph /  1.6km/h 7.0mph /  11.3km/h 76% 0.01in /  0.3mm
08:44 66.9 °F /  19.4 °C 59.8 °F /  15.4 °C 29.96in /  1014.4hPa Calm   7.0mph /  11.3km/h 78% 0.01in /  0.3mm
08:49 67.1 °F /  19.5 °C 58.9 °F /  14.9 °C 29.96in /  1014.4hPa SSW 1.0mph /  1.6km/h 8.0mph /  12.9km/h 75% 0.01in /  0.3mm
08:54 67.2 °F /  19.6 °C 59.0 °F /  15 °C 29.96in /  1014.4hPa Calm   9.0mph /  14.5km/h 75% 0.01in /  0.3mm
08:59 67.5 °F /  19.7 °C 58.9 °F /  14.9 °C 29.96in /  1014.4hPa SW 1.0mph /  1.6km/h 10.0mph /  16.1km/h 74% 0.01in /  0.3mm
09:04 68.0 °F /  20 °C 59.4 °F /  15.2 °C 29.96in /  1014.4hPa SSW 1.0mph /  1.6km/h 10.0mph /  16.1km/h 74% 0.01in /  0.3mm
09:09 68.4 °F /  20.2 °C 59.8 °F /  15.4 °C 29.96in /  1014.4hPa Calm   7.0mph /  11.3km/h 74% 0.01in /  0.3mm
09:14 68.8 °F /  20.4 °C 59.4 °F /  15.2 °C 29.96in /  1014.4hPa SSW 1.0mph /  1.6km/h 7.0mph /  11.3km/h 72% 0.01in /  0.3mm
09:19 69.0 °F /  20.6 °C 59.6 °F /  15.3 °C 29.96in /  1014.4hPa SSW 3.0mph /  4.8km/h 9.0mph /  14.5km/h 72% 0.01in /  0.3mm
09:24 69.1 °F /  20.6 °C 59.7 °F /  15.4 °C 29.96in /  1014.4hPa SSW 1.0mph /  1.6km/h 9.0mph /  14.5km/h 72% 0.01in /  0.3mm
09:29 69.7 °F /  20.9 °C 59.9 °F /  15.5 °C 29.96in /  1014.4hPa SW 1.0mph /  1.6km/h 9.0mph /  14.5km/h 71% 0.01in /  0.3mm
09:34 70.0 °F /  21.1 °C 60.2 °F /  15.7 °C 29.96in /  1014.4hPa SW 1.0mph /  1.6km/h 8.0mph /  12.9km/h 71% 0.01in /  0.3mm
09:39 70.1 °F /  21.2 °C 60.3 °F /  15.7 °C 29.95in /  1014.1hPa SW 2.0mph /  3.2km/h 10.0mph /  16.1km/h 71% 0.01in /  0.3mm
09:44 70.4 °F /  21.3 °C 60.6 °F /  15.9 °C 29.95in /  1014.1hPa SSW 1.0mph /  1.6km/h 10.0mph /  16.1km/h 71% 0.01in /  0.3mm
09:49 70.8 °F /  21.6 °C 60.1 °F /  15.6 °C 29.95in /  1014.1hPa SW 3.0mph /  4.8km/h 9.0mph /  14.5km/h 69% 0.01in /  0.3mm
09:54 71.0 °F /  21.7 °C 59.5 °F /  15.3 °C 29.95in /  1014.1hPa SSW 2.0mph /  3.2km/h 9.0mph /  14.5km/h 67% 0.01in /  0.3mm
09:59 71.2 °F /  21.8 °C 60.1 °F /  15.6 °C 29.96in /  1014.4hPa SSW 2.0mph /  3.2km/h 13.0mph /  20.9km/h 68% 0.01in /  0.3mm
10:04 71.5 °F /  21.9 °C 60.8 °F /  16 °C 29.95in /  1014.1hPa SSW 1.0mph /  1.6km/h 13.0mph /  20.9km/h 69% 0.01in /  0.3mm
10:09 72.1 °F /  22.3 °C 60.1 °F /  15.6 °C 29.96in /  1014.4hPa WSW 2.0mph /  3.2km/h 9.0mph /  14.5km/h 66% 0.01in /  0.3mm
10:14 72.6 °F /  22.6 °C 60.6 °F /  15.9 °C 29.95in /  1014.1hPa SSW 1.0mph /  1.6km/h 9.0mph /  14.5km/h 66% 0.01in /  0.3mm
10:19 73.1 °F /  22.8 °C 61.5 °F /  16.4 °C 29.95in /  1014.1hPa Calm   6.0mph /  9.7km/h 67% 0.01in /  0.3mm
10:24 73.5 °F /  23.1 °C 59.7 °F /  15.4 °C 29.95in /  1014.1hPa SSW 4.0mph /  6.4km/h 8.0mph /  12.9km/h 62% 0.01in /  0.3mm
10:29 74.0 °F /  23.3 °C 61.1 °F /  16.2 °C 29.95in /  1014.1hPa SE 1.0mph /  1.6km/h 8.0mph /  12.9km/h 64% 0.01in /  0.3mm
10:34 74.3 °F /  23.5 °C 61.3 °F /  16.3 °C 29.95in /  1014.1hPa SSW 2.0mph /  3.2km/h 9.0mph /  14.5km/h 64% 0.01in /  0.3mm
10:39 74.1 °F /  23.4 °C 60.3 °F /  15.7 °C 29.95in /  1014.1hPa SW 2.0mph /  3.2km/h 11.0mph /  17.7km/h 62% 0.01in /  0.3mm
10:44 74.2 °F /  23.4 °C 60.4 °F /  15.8 °C 29.95in /  1014.1hPa SW 3.0mph /  4.8km/h 11.0mph /  17.7km/h 62% 0.01in /  0.3mm
10:49 74.3 °F /  23.5 °C 60.5 °F /  15.8 °C 29.95in /  1014.1hPa SW 1.0mph /  1.6km/h 9.0mph /  14.5km/h 62% 0.01in /  0.3mm
10:54 74.1 °F /  23.4 °C 59.3 °F /  15.2 °C 29.95in /  1014.1hPa SW 1.0mph /  1.6km/h 9.0mph /  14.5km/h 60% 0.01in /  0.3mm
10:59 74.2 °F /  23.4 °C 59.9 °F /  15.5 °C 29.95in /  1014.1hPa SW 3.0mph /  4.8km/h 9.0mph /  14.5km/h 61% 0.01in /  0.3mm
11:04 74.3 °F /  23.5 °C 60.0 °F /  15.6 °C 29.95in /  1014.1hPa Calm   10.0mph /  16.1km/h 61% 0.01in /  0.3mm
11:09 74.9 °F /  23.8 °C 60.1 °F /  15.6 °C 29.95in /  1014.1hPa Calm   10.0mph /  16.1km/h 60% 0.01in /  0.3mm
11:14 75.1 °F /  23.9 °C 58.4 °F /  14.7 °C 29.95in /  1014.1hPa SW 3.0mph /  4.8km/h 9.0mph /  14.5km/h 56% 0.01in /  0.3mm
11:19 75.1 °F /  23.9 °C 59.8 °F /  15.4 °C 29.95in /  1014.1hPa West 1.0mph /  1.6km/h 9.0mph /  14.5km/h 59% 0.01in /  0.3mm
11:24 75.2 °F /  24 °C 57.4 °F /  14.1 °C 29.95in /  1014.1hPa SSW 1.0mph /  1.6km/h 8.0mph /  12.9km/h 54% 0.01in /  0.3mm
11:29 75.5 °F /  24.2 °C 57.7 °F /  14.3 °C 29.94in /  1013.8hPa Calm   8.0mph /  12.9km/h 54% 0.01in /  0.3mm
11:34 75.7 °F /  24.3 °C 58.9 °F /  14.9 °C 29.94in /  1013.8hPa Calm   8.0mph /  12.9km/h 56% 0.01in /  0.3mm
11:39 76.0 °F /  24.4 °C 60.7 °F /  15.9 °C 29.94in /  1013.8hPa SW 1.0mph /  1.6km/h 7.0mph /  11.3km/h 59% 0.01in /  0.3mm
11:44 76.7 °F /  24.8 °C 60.8 °F /  16 °C 29.94in /  1013.8hPa Calm   7.0mph /  11.3km/h 58% 0.01in /  0.3mm
11:49 77.1 °F /  25.1 °C 60.2 °F /  15.7 °C 29.94in /  1013.8hPa Calm   5.0mph /  8km/h 56% 0.01in /  0.3mm
11:54 76.9 °F /  24.9 °C 60.5 °F /  15.8 °C 29.94in /  1013.8hPa Calm   10.0mph /  16.1km/h 57% 0.01in /  0.3mm
11:59 77.0 °F /  25 °C 57.0 °F /  13.9 °C 29.94in /  1013.8hPa SW 2.0mph /  3.2km/h 10.0mph /  16.1km/h 50% 0.01in /  0.3mm
12:04 77.2 °F /  25.1 °C 58.8 °F /  14.9 °C 29.94in /  1013.8hPa SE 1.0mph /  1.6km/h 8.0mph /  12.9km/h 53% 0.01in /  0.3mm
12:09 77.1 °F /  25.1 °C 58.1 °F /  14.5 °C 29.94in /  1013.8hPa SSW 2.0mph /  3.2km/h 9.0mph /  14.5km/h 52% 0.01in /  0.3mm
12:14 77.5 °F /  25.3 °C 58.5 °F /  14.7 °C 29.93in /  1013.4hPa Calm   9.0mph /  14.5km/h 52% 0.01in /  0.3mm
12:19 77.9 °F /  25.5 °C 58.3 °F /  14.6 °C 29.94in /  1013.8hPa SSW 1.0mph /  1.6km/h 7.0mph /  11.3km/h 51% 0.01in /  0.3mm
12:24 78.2 °F /  25.7 °C 56.9 °F /  13.8 °C 29.94in /  1013.8hPa SW 1.0mph /  1.6km/h 9.0mph /  14.5km/h 48% 0.01in /  0.3mm
12:29 78.4 °F /  25.8 °C 55.9 °F /  13.3 °C 29.93in /  1013.4hPa Calm   9.0mph /  14.5km/h 46% 0.01in /  0.3mm
12:34 78.9 °F /  26.1 °C 57.6 °F /  14.2 °C 29.93in /  1013.4hPa Calm   8.0mph /  12.9km/h 48% 0.01in /  0.3mm
12:39 78.8 °F /  26 °C 55.1 °F /  12.8 °C 29.93in /  1013.4hPa West 2.0mph /  3.2km/h 9.0mph /  14.5km/h 44% 0.01in /  0.3mm
12:44 78.7 °F /  25.9 °C 55.0 °F /  12.8 °C 29.93in /  1013.4hPa West 6.0mph /  9.7km/h 10.0mph /  16.1km/h 44% 0.01in /  0.3mm
12:49 78.7 °F /  25.9 °C 56.2 °F /  13.4 °C 29.93in /  1013.4hPa West 3.0mph /  4.8km/h 11.0mph /  17.7km/h 46% 0.01in /  0.3mm
12:54 78.6 °F /  25.9 °C 54.9 °F /  12.7 °C 29.93in /  1013.4hPa WSW 2.0mph /  3.2km/h 11.0mph /  17.7km/h 44% 0.01in /  0.3mm
12:59 78.8 °F /  26 °C 57.5 °F /  14.2 °C 29.92in /  1013.1hPa SW 2.0mph /  3.2km/h 8.0mph /  12.9km/h 48% 0.01in /  0.3mm
13:04 79.0 °F /  26.1 °C 56.5 °F /  13.6 °C 29.92in /  1013.1hPa SW 1.0mph /  1.6km/h 8.0mph /  12.9km/h 46% 0.01in /  0.3mm
13:09 79.3 °F /  26.3 °C 57.4 °F /  14.1 °C 29.92in /  1013.1hPa Calm   8.0mph /  12.9km/h 47% 0.01in /  0.3mm
13:14 79.7 °F /  26.5 °C 57.1 °F /  13.9 °C 29.92in /  1013.1hPa SW 1.0mph /  1.6km/h 8.0mph /  12.9km/h 46% 0.01in /  0.3mm
13:19 79.8 °F /  26.6 °C 56.6 °F /  13.7 °C 29.92in /  1013.1hPa SW 7.0mph /  11.3km/h 13.0mph /  20.9km/h 45% 0.01in /  0.3mm
13:24 79.4 °F /  26.3 °C 56.2 °F /  13.4 °C 29.92in /  1013.1hPa SSE 1.0mph /  1.6km/h 13.0mph /  20.9km/h 45% 0.01in /  0.3mm
13:29 79.4 °F /  26.3 °C 55.6 °F /  13.1 °C 29.92in /  1013.1hPa SW 4.0mph /  6.4km/h 9.0mph /  14.5km/h 44% 0.01in /  0.3mm
13:34 79.2 °F /  26.2 °C 55.4 °F /  13 °C 29.92in /  1013.1hPa SW 4.0mph /  6.4km/h 11.0mph /  17.7km/h 44% 0.01in /  0.3mm
13:39 79.4 °F /  26.3 °C 55.0 °F /  12.8 °C 29.91in /  1012.8hPa SW 1.0mph /  1.6km/h 11.0mph /  17.7km/h 43% 0.01in /  0.3mm
13:44 79.6 °F /  26.4 °C 55.8 °F /  13.2 °C 29.92in /  1013.1hPa Calm   10.0mph /  16.1km/h 44% 0.01in /  0.3mm
13:49 79.8 °F /  26.6 °C 56.0 °F /  13.3 °C 29.92in /  1013.1hPa SSW 3.0mph /  4.8km/h 10.0mph /  16.1km/h 44% 0.01in /  0.3mm
13:54 79.8 °F /  26.6 °C 56.0 °F /  13.3 °C 29.91in /  1012.8hPa SW 5.0mph /  8km/h 11.0mph /  17.7km/h 44% 0.01in /  0.3mm
13:59 79.9 °F /  26.6 °C 56.1 °F /  13.4 °C 29.91in /  1012.8hPa SW 3.0mph /  4.8km/h 11.0mph /  17.7km/h 44% 0.01in /  0.3mm
14:04 80.1 °F /  26.7 °C 58.1 °F /  14.5 °C 29.91in /  1012.8hPa WSW 2.0mph /  3.2km/h 9.0mph /  14.5km/h 47% 0.01in /  0.3mm
14:09 80.2 °F /  26.8 °C 55.7 °F /  13.2 °C 29.91in /  1012.8hPa Calm   9.0mph /  14.5km/h 43% 0.01in /  0.3mm
14:14 80.5 °F /  26.9 °C 56.0 °F /  13.3 °C 29.91in /  1012.8hPa SSW 4.0mph /  6.4km/h 8.0mph /  12.9km/h 43% 0.01in /  0.3mm
14:19 80.7 °F /  27.1 °C 57.4 °F /  14.1 °C 29.91in /  1012.8hPa Calm   8.0mph /  12.9km/h 45% 0.01in /  0.3mm
14:24 81.2 °F /  27.3 °C 58.5 °F /  14.7 °C 29.90in /  1012.4hPa Calm   7.0mph /  11.3km/h 46% 0.01in /  0.3mm
14:29 81.5 °F /  27.5 °C 58.1 °F /  14.5 °C 29.90in /  1012.4hPa Calm   9.0mph /  14.5km/h 45% 0.01in /  0.3mm
14:34 81.7 °F /  27.6 °C 57.7 °F /  14.3 °C 29.90in /  1012.4hPa Calm   9.0mph /  14.5km/h 44% 0.01in /  0.3mm
14:39 81.8 °F /  27.7 °C 57.1 °F /  13.9 °C 29.90in /  1012.4hPa Calm   6.0mph /  9.7km/h 43% 0.01in /  0.3mm
14:44 81.6 °F /  27.6 °C 58.2 °F /  14.6 °C 29.91in /  1012.8hPa SW 4.0mph /  6.4km/h 12.0mph /  19.3km/h 45% 0.01in /  0.3mm
14:49 81.1 °F /  27.3 °C 59.6 °F /  15.3 °C 29.90in /  1012.4hPa Calm   12.0mph /  19.3km/h 48% 0.01in /  0.3mm
14:54 81.4 °F /  27.4 °C 56.8 °F /  13.8 °C 29.90in /  1012.4hPa South 4.0mph /  6.4km/h 10.0mph /  16.1km/h 43% 0.01in /  0.3mm
14:59 81.2 °F /  27.3 °C 58.5 °F /  14.7 °C 29.90in /  1012.4hPa ESE 1.0mph /  1.6km/h 10.0mph /  16.1km/h 46% 0.01in /  0.3mm
15:04 81.4 °F /  27.4 °C 56.1 °F /  13.4 °C 29.90in /  1012.4hPa Calm   7.0mph /  11.3km/h 42% 0.01in /  0.3mm
15:09 81.7 °F /  27.6 °C 56.4 °F /  13.6 °C 29.90in /  1012.4hPa West 2.0mph /  3.2km/h 8.0mph /  12.9km/h 42% 0.01in /  0.3mm
15:14 81.8 °F /  27.7 °C 57.8 °F /  14.3 °C 29.90in /  1012.4hPa Calm   8.0mph /  12.9km/h 44% 0.01in /  0.3mm
15:19 81.9 °F /  27.7 °C 57.2 °F /  14 °C 29.90in /  1012.4hPa South 3.0mph /  4.8km/h 7.0mph /  11.3km/h 43% 0.01in /  0.3mm
15:24 81.9 °F /  27.7 °C 57.2 °F /  14 °C 29.89in /  1012.1hPa SW 1.0mph /  1.6km/h 7.0mph /  11.3km/h 43% 0.01in /  0.3mm
15:29 82.1 °F /  27.8 °C 57.4 °F /  14.1 °C 29.89in /  1012.1hPa SSW 2.0mph /  3.2km/h 10.0mph /  16.1km/h 43% 0.01in /  0.3mm
15:34 82.0 °F /  27.8 °C 57.3 °F /  14.1 °C 29.89in /  1012.1hPa SW 4.0mph /  6.4km/h 10.0mph /  16.1km/h 43% 0.01in /  0.3mm
15:39 82.2 °F /  27.9 °C 58.1 °F /  14.5 °C 29.89in /  1012.1hPa WSW 2.0mph /  3.2km/h 9.0mph /  14.5km/h 44% 0.01in /  0.3mm
15:44 82.0 °F /  27.8 °C 56.7 °F /  13.7 °C 29.89in /  1012.1hPa Calm   8.0mph /  12.9km/h 42% 0.01in /  0.3mm
15:49 81.5 °F /  27.5 °C 57.5 °F /  14.2 °C 29.89in /  1012.1hPa Calm   8.0mph /  12.9km/h 44% 0.01in /  0.3mm
15:54 82.1 °F /  27.8 °C 57.4 °F /  14.1 °C 29.89in /  1012.1hPa SW 3.0mph /  4.8km/h 7.0mph /  11.3km/h 43% 0.01in /  0.3mm
15:59 82.0 °F /  27.8 °C 58.6 °F /  14.8 °C 29.88in /  1011.7hPa SSW 1.0mph /  1.6km/h 7.0mph /  11.3km/h 45% 0.01in /  0.3mm
16:04 82.1 °F /  27.8 °C 59.9 °F /  15.5 °C 29.88in /  1011.7hPa Calm   5.0mph /  8km/h 47% 0.01in /  0.3mm
16:09 82.8 °F /  28.2 °C 58.7 °F /  14.8 °C 29.88in /  1011.7hPa Calm   5.0mph /  8km/h 44% 0.01in /  0.3mm
16:14 82.7 °F /  28.2 °C 58.6 °F /  14.8 °C 29.88in /  1011.7hPa West 2.0mph /  3.2km/h 10.0mph /  16.1km/h 44% 0.01in /  0.3mm
16:19 82.7 °F /  28.2 °C 58.6 °F /  14.8 °C 29.88in /  1011.7hPa SW 1.0mph /  1.6km/h 10.0mph /  16.1km/h 44% 0.01in /  0.3mm
16:24 82.8 °F /  28.2 °C 59.9 °F /  15.5 °C 29.88in /  1011.7hPa Calm   4.0mph /  6.4km/h 46% 0.01in /  0.3mm
16:29 83.0 °F /  28.3 °C 59.5 °F /  15.3 °C 29.88in /  1011.7hPa WSW 2.0mph /  3.2km/h 8.0mph /  12.9km/h 45% 0.01in /  0.3mm
16:34 82.7 °F /  28.2 °C 58.6 °F /  14.8 °C 29.88in /  1011.7hPa SSW 1.0mph /  1.6km/h 8.0mph /  12.9km/h 44% 0.01in /  0.3mm
16:39 82.3 °F /  27.9 °C 59.5 °F /  15.3 °C 29.88in /  1011.7hPa SSW 1.0mph /  1.6km/h 6.0mph /  9.7km/h 46% 0.01in /  0.3mm
16:45 82.5 °F /  28.1 °C 58.4 °F /  14.7 °C 29.87in /  1011.4hPa SW 1.0mph /  1.6km/h 6.0mph /  9.7km/h 44% 0.01in /  0.3mm
16:54 82.1 °F /  27.8 °C 59.9 °F /  15.5 °C 29.87in /  1011.4hPa SW 2.0mph /  3.2km/h 9.0mph /  14.5km/h 47% 0.01in /  0.3mm
16:59 82.2 °F /  27.9 °C 60.6 °F /  15.9 °C 29.87in /  1011.4hPa Calm   8.0mph /  12.9km/h 48% 0.01in /  0.3mm
17:04 82.2 °F /  27.9 °C 59.4 °F /  15.2 °C 29.87in /  1011.4hPa SW 1.0mph /  1.6km/h 8.0mph /  12.9km/h 46% 0.01in /  0.3mm
17:09 81.9 °F /  27.7 °C 59.1 °F /  15.1 °C 29.87in /  1011.4hPa Calm   9.0mph /  14.5km/h 46% 0.01in /  0.3mm
17:14 82.0 °F /  27.8 °C 59.8 °F /  15.4 °C 29.87in /  1011.4hPa Calm   9.0mph /  14.5km/h 47% 0.01in /  0.3mm
17:19 82.3 °F /  27.9 °C 59.5 °F /  15.3 °C 29.86in /  1011.1hPa Calm   5.0mph /  8km/h 46% 0.01in /  0.3mm
17:24 82.1 °F /  27.8 °C 56.8 °F /  13.8 °C 29.87in /  1011.4hPa SW 2.0mph /  3.2km/h 8.0mph /  12.9km/h 42% 0.01in /  0.3mm
17:30 82.0 °F /  27.8 °C 59.8 °F /  15.4 °C 29.87in /  1011.4hPa Calm   8.0mph /  12.9km/h 47% 0.01in /  0.3mm
17:39 81.8 °F /  27.7 °C 59.6 °F /  15.3 °C 29.86in /  1011.1hPa Calm   6.0mph /  9.7km/h 47% 0.01in /  0.3mm
17:44 82.0 °F /  27.8 °C 57.3 °F /  14.1 °C 29.86in /  1011.1hPa WSW 2.0mph /  3.2km/h 7.0mph /  11.3km/h 43% 0.01in /  0.3mm
17:49 81.8 °F /  27.7 °C 57.8 °F /  14.3 °C 29.86in /  1011.1hPa West 1.0mph /  1.6km/h 8.0mph /  12.9km/h 44% 0.01in /  0.3mm
17:54 81.7 °F /  27.6 °C 57.7 °F /  14.3 °C 29.86in /  1011.1hPa Calm   8.0mph /  12.9km/h 44% 0.01in /  0.3mm
17:59 80.9 °F /  27.2 °C 58.2 °F /  14.6 °C 29.86in /  1011.1hPa Calm   9.0mph /  14.5km/h 46% 0.01in /  0.3mm
18:04 80.0 °F /  26.7 °C 56.8 °F /  13.8 °C 29.86in /  1011.1hPa Calm   9.0mph /  14.5km/h 45% 0.01in /  0.3mm
18:09 79.3 °F /  26.3 °C 57.4 °F /  14.1 °C 29.86in /  1011.1hPa Calm   6.0mph /  9.7km/h 47% 0.01in /  0.3mm
18:14 78.7 °F /  25.9 °C 56.8 °F /  13.8 °C 29.87in /  1011.4hPa SSW 1.0mph /  1.6km/h 7.0mph /  11.3km/h 47% 0.01in /  0.3mm
18:19 77.9 °F /  25.5 °C 56.7 °F /  13.7 °C 29.86in /  1011.1hPa SW 1.0mph /  1.6km/h 7.0mph /  11.3km/h 48% 0.01in /  0.3mm
18:24 77.2 °F /  25.1 °C 57.7 °F /  14.3 °C 29.87in /  1011.4hPa Calm   6.0mph /  9.7km/h 51% 0.01in /  0.3mm
18:29 76.6 °F /  24.8 °C 59.2 °F /  15.1 °C 29.87in /  1011.4hPa Calm   1.0mph /  1.6km/h 55% 0.01in /  0.3mm
18:34 75.7 °F /  24.3 °C 57.9 °F /  14.4 °C 29.87in /  1011.4hPa Calm   1.0mph /  1.6km/h 54% 0.01in /  0.3mm
18:39 75.3 °F /  24.1 °C 57.5 °F /  14.2 °C 29.87in /  1011.4hPa Calm     54% 0.01in /  0.3mm
18:44 75.6 °F /  24.2 °C 57.8 °F /  14.3 °C 29.87in /  1011.4hPa Calm     54% 0.01in /  0.3mm
18:49 76.5 °F /  24.7 °C 58.1 °F /  14.5 °C 29.87in /  1011.4hPa Calm   1.0mph /  1.6km/h 53% 0.01in /  0.3mm
18:54 77.2 °F /  25.1 °C 58.2 °F /  14.6 °C 29.86in /  1011.1hPa Calm   1.0mph /  1.6km/h 52% 0.01in /  0.3mm
18:59 77.7 °F /  25.4 °C 57.6 °F /  14.2 °C 29.87in /  1011.4hPa Calm   3.0mph /  4.8km/h 50% 0.01in /  0.3mm
19:04 77.9 °F /  25.5 °C 57.8 °F /  14.3 °C 29.86in /  1011.1hPa Calm   3.0mph /  4.8km/h 50% 0.01in /  0.3mm
19:09 78.0 °F /  25.6 °C 57.9 °F /  14.4 °C 29.87in /  1011.4hPa Calm   1.0mph /  1.6km/h 50% 0.01in /  0.3mm
19:14 77.7 °F /  25.4 °C 58.7 °F /  14.8 °C 29.87in /  1011.4hPa Calm   1.0mph /  1.6km/h 52% 0.01in /  0.3mm
19:19 77.5 °F /  25.3 °C 58.0 °F /  14.4 °C 29.86in /  1011.1hPa SW 1.0mph /  1.6km/h 3.0mph /  4.8km/h 51% 0.01in /  0.3mm
19:24 77.2 °F /  25.1 °C 58.8 °F /  14.9 °C 29.87in /  1011.4hPa Calm   3.0mph /  4.8km/h 53% 0.01in /  0.3mm
19:29 76.6 °F /  24.8 °C 59.2 °F /  15.1 °C 29.86in /  1011.1hPa Calm   1.0mph /  1.6km/h 55% 0.01in /  0.3mm
19:39 75.1 °F /  23.9 °C 58.8 °F /  14.9 °C 29.87in /  1011.4hPa Calm     57% 0.01in /  0.3mm
19:44 74.5 °F /  23.6 °C 58.3 °F /  14.6 °C 29.87in /  1011.4hPa Calm   1.0mph /  1.6km/h 57% 0.01in /  0.3mm
19:49 73.9 °F /  23.3 °C 58.2 °F /  14.6 °C 29.87in /  1011.4hPa Calm   1.0mph /  1.6km/h 58% 0.01in /  0.3mm
19:54 73.0 °F /  22.8 °C 57.8 °F /  14.3 °C 29.87in /  1011.4hPa Calm     59% 0.01in /  0.3mm
19:59 72.1 °F /  22.3 °C 57.9 °F /  14.4 °C 29.87in /  1011.4hPa Calm     61% 0.01in /  0.3mm
20:04 71.0 °F /  21.7 °C 58.2 °F /  14.6 °C 29.87in /  1011.4hPa Calm     64% 0.01in /  0.3mm
20:09 69.7 °F /  20.9 °C 57.4 °F /  14.1 °C 29.87in /  1011.4hPa Calm     65% 0.01in /  0.3mm
20:14 68.7 °F /  20.4 °C 57.3 °F /  14.1 °C 29.87in /  1011.4hPa Calm     67% 0.01in /  0.3mm
20:20 68.0 °F /  20 °C 56.6 °F /  13.7 °C 29.87in /  1011.4hPa Calm     67% 0.01in /  0.3mm
20:29 67.4 °F /  19.7 °C 56.9 °F /  13.8 °C 29.87in /  1011.4hPa Calm     69% 0.01in /  0.3mm
20:34 67.2 °F /  19.6 °C 56.7 °F /  13.7 °C 29.87in /  1011.4hPa Calm     69% 0.01in /  0.3mm
20:39 67.2 °F /  19.6 °C 56.7 °F /  13.7 °C 29.87in /  1011.4hPa Calm     69% 0.01in /  0.3mm
20:45 67.2 °F /  19.6 °C 56.7 °F /  13.7 °C 29.87in /  1011.4hPa Calm     69% 0.01in /  0.3mm
20:54 66.9 °F /  19.4 °C 56.4 °F /  13.6 °C 29.87in /  1011.4hPa Calm     69% 0.01in /  0.3mm
20:59 66.9 °F /  19.4 °C 56.8 °F /  13.8 °C 29.88in /  1011.7hPa Calm     70% 0.01in /  0.3mm
21:05 66.8 °F /  19.3 °C 56.7 °F /  13.7 °C 29.88in /  1011.7hPa Calm     70% 0.01in /  0.3mm
21:14 66.2 °F /  19 °C 56.9 °F /  13.8 °C 29.88in /  1011.7hPa Calm     72% 0.01in /  0.3mm
21:19 65.8 °F /  18.8 °C 56.9 °F /  13.8 °C 29.88in /  1011.7hPa Calm     73% 0.01in /  0.3mm
21:24 65.6 °F /  18.7 °C 56.3 °F /  13.5 °C 29.88in /  1011.7hPa Calm     72% 0.01in /  0.3mm
21:29 65.5 °F /  18.6 °C 56.2 °F /  13.4 °C 29.88in /  1011.7hPa Calm     72% 0.01in /  0.3mm
21:34 65.4 °F /  18.6 °C 56.1 °F /  13.4 °C 29.88in /  1011.7hPa Calm     72% 0.01in /  0.3mm
21:40 65.3 °F /  18.5 °C 56.1 °F /  13.4 °C 29.88in /  1011.7hPa Calm     72% 0.01in /  0.3mm
21:49 65.3 °F /  18.5 °C 56.1 °F /  13.4 °C 29.89in /  1012.1hPa Calm     72% 0.01in /  0.3mm
21:54 65.2 °F /  18.4 °C 56.0 °F /  13.3 °C 29.89in /  1012.1hPa Calm     72% 0.01in /  0.3mm
21:59 65.1 °F /  18.4 °C 55.9 °F /  13.3 °C 29.89in /  1012.1hPa Calm     72% 0.01in /  0.3mm
22:04 64.9 °F /  18.3 °C 56.0 °F /  13.3 °C 29.89in /  1012.1hPa Calm     73% 0.01in /  0.3mm
22:09 64.8 °F /  18.2 °C 56.0 °F /  13.3 °C 29.89in /  1012.1hPa Calm     73% 0.01in /  0.3mm
22:14 64.7 °F /  18.2 °C 55.9 °F /  13.3 °C 29.89in /  1012.1hPa Calm     73% 0.01in /  0.3mm
22:19 64.8 °F /  18.2 °C 56.0 °F /  13.3 °C 29.89in /  1012.1hPa Calm   3.0mph /  4.8km/h 73% 0.01in /  0.3mm
22:24 64.6 °F /  18.1 °C 55.8 °F /  13.2 °C 29.89in /  1012.1hPa Calm   3.0mph /  4.8km/h 73% 0.01in /  0.3mm
22:29 64.4 °F /  18 °C 55.6 °F /  13.1 °C 29.89in /  1012.1hPa Calm   6.0mph /  9.7km/h 73% 0.01in /  0.3mm
22:34 64.1 °F /  17.8 °C 55.7 °F /  13.2 °C 29.90in /  1012.4hPa Calm   6.0mph /  9.7km/h 74% 0.01in /  0.3mm
22:39 63.8 °F /  17.7 °C 55.7 °F /  13.2 °C 29.90in /  1012.4hPa Calm   2.0mph /  3.2km/h 75% 0.01in /  0.3mm
22:44 63.5 °F /  17.5 °C 55.4 °F /  13 °C 29.90in /  1012.4hPa Calm   1.0mph /  1.6km/h 75% 0.01in /  0.3mm
22:49 63.1 °F /  17.3 °C 55.4 °F /  13 °C 29.90in /  1012.4hPa SW 1.0mph /  1.6km/h 4.0mph /  6.4km/h 76% 0.01in /  0.3mm
22:54 63.2 °F /  17.3 °C 55.5 °F /  13.1 °C 29.90in /  1012.4hPa Calm   4.0mph /  6.4km/h 76% 0.01in /  0.3mm
22:59 63.5 °F /  17.5 °C 55.4 °F /  13 °C 29.90in /  1012.4hPa Calm   4.0mph /  6.4km/h 75% 0.01in /  0.3mm
23:04 63.8 °F /  17.7 °C 55.4 °F /  13 °C 29.90in /  1012.4hPa Calm   4.0mph /  6.4km/h 74% 0.01in /  0.3mm
23:09 64.1 °F /  17.8 °C 55.7 °F /  13.2 °C 29.90in /  1012.4hPa Calm   3.0mph /  4.8km/h 74% 0.01in /  0.3mm
23:14 64.1 °F /  17.8 °C 55.3 °F /  12.9 °C 29.90in /  1012.4hPa Calm   1.0mph /  1.6km/h 73% 0.01in /  0.3mm
23:20 64.1 °F /  17.8 °C 55.3 °F /  12.9 °C 29.90in /  1012.4hPa Calm   1.0mph /  1.6km/h 73% 0.01in /  0.3mm
23:29 63.6 °F /  17.6 °C 55.2 °F /  12.9 °C 29.90in /  1012.4hPa Calm     74% 0.01in /  0.3mm
23:34 63.2 °F /  17.3 °C 55.2 °F /  12.9 °C 29.90in /  1012.4hPa Calm   1.0mph /  1.6km/h 75% 0.01in /  0.3mm
23:39 62.8 °F /  17.1 °C 55.1 °F /  12.8 °C 29.90in /  1012.4hPa Calm   1.0mph /  1.6km/h 76% 0.01in /  0.3mm
23:44 62.6 °F /  17 °C 54.9 °F /  12.7 °C 29.90in /  1012.4hPa Calm   1.0mph /  1.6km/h 76% 0.01in /  0.3mm
23:49 62.5 °F /  16.9 °C 54.8 °F /  12.7 °C 29.90in /  1012.4hPa Calm     76% 0.01in /  0.3mm
23:54 62.4 °F /  16.9 °C 55.1 °F /  12.8 °C 29.90in /  1012.4hPa Calm     77% 0.01in /  0.3mm
23:59 62.2 °F /  16.8 °C 54.9 °F /  12.7 °C 29.90in /  1012.4hPa Calm     77% 0.01in /  0.3mm
Westford Weather
Compliments of Weather Underground

 
 
Current Radar Loop:

Copyright © WestfordWeather.net 2007-2014. All rights reserved.